createdAt,value
2018-03-20T00:00:45.214Z,1012.56
2018-03-20T00:01:45.164Z,1012.52
2018-03-20T00:02:45.112Z,1012.54
2018-03-20T00:03:45.059Z,1012.57
2018-03-20T00:04:45.005Z,1012.56
2018-03-20T00:05:44.956Z,1012.55
2018-03-20T00:06:44.905Z,1012.56
2018-03-20T00:07:44.849Z,1012.52
2018-03-20T00:08:44.801Z,1012.54
2018-03-20T00:09:44.749Z,1012.54
2018-03-20T00:10:44.696Z,1012.55
2018-03-20T00:11:44.642Z,1012.56
2018-03-20T00:12:44.591Z,1012.52
2018-03-20T00:13:44.542Z,1012.60
2018-03-20T00:14:44.496Z,1012.62
2018-03-20T00:15:44.435Z,1012.61
2018-03-20T00:16:44.385Z,1012.64
2018-03-20T00:17:44.330Z,1012.59
2018-03-20T00:18:44.278Z,1012.59
2018-03-20T00:19:44.228Z,1012.63
2018-03-20T00:20:44.177Z,1012.64
2018-03-20T00:21:44.125Z,1012.59
2018-03-20T00:22:44.073Z,1012.54
2018-03-20T00:23:44.027Z,1012.62
2018-03-20T00:24:43.972Z,1012.60
2018-03-20T00:25:43.915Z,1012.69
2018-03-20T00:26:43.863Z,1012.67
2018-03-20T00:27:43.815Z,1012.67
2018-03-20T00:28:43.761Z,1012.67
2018-03-20T00:29:43.707Z,1012.67
2018-03-20T00:30:43.655Z,1012.71
2018-03-20T00:31:43.605Z,1012.70
2018-03-20T00:32:43.556Z,1012.71
2018-03-20T00:33:43.499Z,1012.67
2018-03-20T00:34:43.449Z,1012.67
2018-03-20T00:35:43.401Z,1012.62
2018-03-20T00:36:43.342Z,1012.67
2018-03-20T00:37:43.292Z,1012.66
2018-03-20T00:38:43.238Z,1012.68
2018-03-20T00:39:43.186Z,1012.64
2018-03-20T00:40:43.134Z,1012.68
2018-03-20T00:41:43.087Z,1012.69
2018-03-20T00:42:43.033Z,1012.65
2018-03-20T00:43:42.978Z,1012.64
2018-03-20T00:44:42.927Z,1012.69
2018-03-20T00:45:42.874Z,1012.67
2018-03-20T00:46:42.824Z,1012.64
2018-03-20T00:47:42.769Z,1012.69
2018-03-20T00:48:42.717Z,1012.68
2018-03-20T00:49:42.666Z,1012.69
2018-03-20T00:50:42.614Z,1012.72
2018-03-20T00:51:42.561Z,1012.70
2018-03-20T00:52:42.509Z,1012.76
2018-03-20T00:53:42.457Z,1012.79
2018-03-20T00:54:42.404Z,1012.83
2018-03-20T00:55:42.357Z,1012.88
2018-03-20T00:56:42.299Z,1012.86
2018-03-20T00:57:42.250Z,1012.87
2018-03-20T00:58:42.197Z,1012.88
2018-03-20T00:59:42.142Z,1012.86
2018-03-20T01:00:42.091Z,1012.88
2018-03-20T01:01:42.039Z,1012.84
2018-03-20T01:02:41.993Z,1012.86
2018-03-20T01:03:41.932Z,1012.89
2018-03-20T01:04:41.884Z,1012.87
2018-03-20T01:05:41.831Z,1012.87
2018-03-20T01:06:41.778Z,1012.85
2018-03-20T01:07:41.729Z,1012.84
2018-03-20T01:08:41.677Z,1012.84
2018-03-20T01:09:41.622Z,1012.85
2018-03-20T01:10:41.570Z,1012.84
2018-03-20T01:11:41.518Z,1012.89
2018-03-20T01:12:41.465Z,1012.91
2018-03-20T01:13:41.412Z,1012.90
2018-03-20T01:14:41.362Z,1012.89
2018-03-20T01:15:41.309Z,1012.91
2018-03-20T01:16:41.259Z,1012.94
2018-03-20T01:17:41.206Z,1012.93
2018-03-20T01:18:41.150Z,1012.89
2018-03-20T01:19:41.105Z,1012.91
2018-03-20T01:20:41.047Z,1012.83
2018-03-20T01:21:41.000Z,1012.69
2018-03-20T01:22:40.945Z,1012.77
2018-03-20T01:23:40.894Z,1012.78
2018-03-20T01:24:40.842Z,1012.75
2018-03-20T01:25:40.782Z,1012.75
2018-03-20T01:26:40.736Z,1012.77
2018-03-20T01:27:40.680Z,1012.81
2018-03-20T01:28:40.627Z,1012.82
2018-03-20T01:29:40.577Z,1012.85
2018-03-20T01:30:40.522Z,1012.78
2018-03-20T01:31:40.525Z,1012.72
2018-03-20T01:32:40.418Z,1012.68
2018-03-20T01:33:40.371Z,1012.64
2018-03-20T01:34:40.314Z,1012.57
2018-03-20T01:35:40.263Z,1012.65
2018-03-20T01:36:40.209Z,1012.64
2018-03-20T01:37:40.156Z,1012.69
2018-03-20T01:38:40.107Z,1012.66
2018-03-20T01:39:40.053Z,1012.58
2018-03-20T01:40:39.999Z,1012.58
2018-03-20T01:41:39.948Z,1012.56
2018-03-20T01:42:39.895Z,1012.54
2018-03-20T01:43:39.841Z,1012.53
2018-03-20T01:44:39.789Z,1012.55
2018-03-20T01:45:39.736Z,1012.52
2018-03-20T01:46:39.689Z,1012.54
2018-03-20T01:47:39.634Z,1012.53
2018-03-20T01:48:39.581Z,1012.55
2018-03-20T01:49:39.527Z,1012.60
2018-03-20T01:50:39.474Z,1012.66
2018-03-20T01:51:39.421Z,1012.72
2018-03-20T01:52:39.372Z,1012.68
2018-03-20T01:53:39.320Z,1012.70
2018-03-20T01:54:39.264Z,1012.66
2018-03-20T01:55:39.214Z,1012.57
2018-03-20T01:56:39.162Z,1012.58
2018-03-20T01:57:39.152Z,1012.60
2018-03-20T01:58:39.064Z,1012.62
2018-03-20T01:59:39.008Z,1012.67
2018-03-20T02:00:38.962Z,1012.65
2018-03-20T02:01:38.898Z,1012.63
2018-03-20T02:02:38.851Z,1012.65
2018-03-20T02:03:38.801Z,1012.64
2018-03-20T02:04:38.743Z,1012.63
2018-03-20T02:05:38.691Z,1012.59
2018-03-20T02:06:38.640Z,1012.65
2018-03-20T02:07:38.586Z,1012.67
2018-03-20T02:08:38.537Z,1012.71
2018-03-20T02:09:38.484Z,1012.64
2018-03-20T02:10:38.432Z,1012.65
2018-03-20T02:11:38.377Z,1012.67
2018-03-20T02:12:38.326Z,1012.63
2018-03-20T02:13:38.274Z,1012.66
2018-03-20T02:14:38.223Z,1012.66
2018-03-20T02:15:38.176Z,1012.63
2018-03-20T02:16:38.117Z,1012.60
2018-03-20T02:17:38.066Z,1012.61
2018-03-20T02:18:38.015Z,1012.58
2018-03-20T02:19:37.961Z,1012.64
2018-03-20T02:20:37.911Z,1012.62
2018-03-20T02:21:37.860Z,1012.60
2018-03-20T02:22:37.808Z,1012.59
2018-03-20T02:23:37.756Z,1012.60
2018-03-20T02:24:37.702Z,1012.59
2018-03-20T02:25:37.652Z,1012.60
2018-03-20T02:26:37.599Z,1012.59
2018-03-20T02:27:37.552Z,1012.54
2018-03-20T02:28:37.494Z,1012.49
2018-03-20T02:29:37.444Z,1012.49
2018-03-20T02:30:37.393Z,1012.40
2018-03-20T02:31:37.340Z,1012.42
2018-03-20T02:32:37.288Z,1012.42
2018-03-20T02:33:37.240Z,1012.38
2018-03-20T02:34:37.185Z,1012.30
2018-03-20T02:35:37.135Z,1012.23
2018-03-20T02:36:37.083Z,1012.26
2018-03-20T02:37:37.035Z,1012.15
2018-03-20T02:38:36.980Z,1012.13
2018-03-20T02:39:36.927Z,1012.16
2018-03-20T02:40:36.877Z,1012.28
2018-03-20T02:41:36.828Z,1012.39
2018-03-20T02:42:36.773Z,1012.40
2018-03-20T02:43:36.723Z,1012.51
2018-03-20T02:44:36.669Z,1012.56
2018-03-20T02:45:36.622Z,1012.54
2018-03-20T02:46:36.567Z,1012.56
2018-03-20T02:47:36.534Z,1012.52
2018-03-20T02:48:36.463Z,1012.53
2018-03-20T02:49:36.419Z,1012.50
2018-03-20T02:50:36.364Z,1012.52
2018-03-20T02:51:36.311Z,1012.49
2018-03-20T02:52:36.256Z,1012.43
2018-03-20T02:53:36.211Z,1012.46
2018-03-20T02:54:36.158Z,1012.43
2018-03-20T02:55:36.103Z,1012.41
2018-03-20T02:56:36.056Z,1012.41
2018-03-20T02:57:36.002Z,1012.36
2018-03-20T02:58:35.952Z,1012.36
2018-03-20T02:59:35.900Z,1012.33
2018-03-20T03:00:35.848Z,1012.33
2018-03-20T03:01:35.797Z,1012.34
2018-03-20T03:02:35.750Z,1012.34
2018-03-20T03:03:35.694Z,1012.31
2018-03-20T03:04:35.642Z,1012.36
2018-03-20T03:05:35.593Z,1012.35
2018-03-20T03:06:35.551Z,1012.40
2018-03-20T03:07:35.491Z,1012.39
2018-03-20T03:08:35.442Z,1012.36
2018-03-20T03:09:35.387Z,1012.33
2018-03-20T03:10:35.345Z,1012.34
2018-03-20T03:11:35.288Z,1012.34
2018-03-20T03:12:35.237Z,1012.33
2018-03-20T03:13:35.183Z,1012.34
2018-03-20T03:14:35.134Z,1012.35
2018-03-20T03:15:35.086Z,1012.37
2018-03-20T03:16:35.030Z,1012.38
2018-03-20T03:17:34.980Z,1012.36
2018-03-20T03:18:34.929Z,1012.38
2018-03-20T03:19:34.877Z,1012.33
2018-03-20T03:20:34.830Z,1012.33
2018-03-20T03:21:34.778Z,1012.30
2018-03-20T03:22:34.724Z,1012.30
2018-03-20T03:23:34.676Z,1012.26
2018-03-20T03:24:34.626Z,1012.28
2018-03-20T03:25:34.572Z,1012.28
2018-03-20T03:26:34.521Z,1012.23
2018-03-20T03:27:34.472Z,1012.23
2018-03-20T03:28:34.418Z,1012.24
2018-03-20T03:29:34.371Z,1012.27
2018-03-20T03:30:34.317Z,1012.27
2018-03-20T03:31:34.268Z,1012.24
2018-03-20T03:32:34.215Z,1012.27
2018-03-20T03:33:34.164Z,1012.20
2018-03-20T03:34:34.119Z,1012.18
2018-03-20T03:35:34.065Z,1012.19
2018-03-20T03:36:34.013Z,1012.24
2018-03-20T03:37:33.963Z,1012.25
2018-03-20T03:38:33.911Z,1012.25
2018-03-20T03:39:33.861Z,1012.23
2018-03-20T03:40:33.809Z,1012.22
2018-03-20T03:41:33.758Z,1012.27
2018-03-20T03:42:33.710Z,1012.22
2018-03-20T03:43:33.658Z,1012.22
2018-03-20T03:44:33.605Z,1012.23
2018-03-20T03:45:33.558Z,1012.22
2018-03-20T03:46:33.505Z,1012.21
2018-03-20T03:47:33.456Z,1012.22
2018-03-20T03:48:33.403Z,1012.22
2018-03-20T03:49:33.359Z,1012.22
2018-03-20T03:50:33.306Z,1012.24
2018-03-20T03:51:33.252Z,1012.23
2018-03-20T03:52:33.202Z,1012.20
2018-03-20T03:53:33.153Z,1012.24
2018-03-20T03:54:33.106Z,1012.22
2018-03-20T03:55:33.050Z,1012.18
2018-03-20T03:56:33.002Z,1012.22
2018-03-20T03:57:32.950Z,1012.23
2018-03-20T03:58:32.904Z,1012.21
2018-03-20T03:59:32.846Z,1012.19
2018-03-20T04:00:32.796Z,1012.18
2018-03-20T04:01:32.762Z,1012.18
2018-03-20T04:02:32.696Z,1012.17
2018-03-20T04:03:32.662Z,1012.16
2018-03-20T04:04:32.591Z,1012.13
2018-03-20T04:05:32.545Z,1012.15
2018-03-20T04:06:32.496Z,1012.19
2018-03-20T04:07:32.441Z,1012.19
2018-03-20T04:08:32.395Z,1012.20
2018-03-20T04:09:32.340Z,1012.15
2018-03-20T04:10:32.293Z,1012.15
2018-03-20T04:11:32.235Z,1012.12
2018-03-20T04:12:32.187Z,1012.11
2018-03-20T04:13:32.135Z,1012.17
2018-03-20T04:14:32.092Z,1012.11
2018-03-20T04:15:32.034Z,1012.10
2018-03-20T04:16:31.981Z,1012.15
2018-03-20T04:17:31.939Z,1012.13
2018-03-20T04:18:31.885Z,1012.12
2018-03-20T04:19:31.836Z,1012.14
2018-03-20T04:20:31.780Z,1012.14
2018-03-20T04:21:31.731Z,1012.15
2018-03-20T04:22:31.684Z,1012.15
2018-03-20T04:23:31.627Z,1012.14
2018-03-20T04:24:31.582Z,1012.14
2018-03-20T04:25:31.528Z,1012.17
2018-03-20T04:26:31.485Z,1012.17
2018-03-20T04:27:31.428Z,1012.13
2018-03-20T04:28:31.379Z,1012.11
2018-03-20T04:29:31.324Z,1012.12
2018-03-20T04:30:31.274Z,1012.15
2018-03-20T04:31:31.221Z,1012.12
2018-03-20T04:32:31.174Z,1012.13
2018-03-20T04:33:31.123Z,1012.14
2018-03-20T04:34:31.075Z,1012.14
2018-03-20T04:35:31.020Z,1012.13
2018-03-20T04:36:30.969Z,1012.09
2018-03-20T04:37:30.918Z,1012.11
2018-03-20T04:38:30.866Z,1012.06
2018-03-20T04:39:30.819Z,1012.07
2018-03-20T04:40:30.767Z,1012.02
2018-03-20T04:41:30.718Z,1012.05
2018-03-20T04:42:30.674Z,1012.03
2018-03-20T04:43:30.621Z,1012.07
2018-03-20T04:44:30.565Z,1012.00
2018-03-20T04:45:30.514Z,1012.05
2018-03-20T04:46:30.463Z,1012.09
2018-03-20T04:47:30.415Z,1012.02
2018-03-20T04:48:30.360Z,1012.07
2018-03-20T04:49:30.309Z,1012.09
2018-03-20T04:50:30.260Z,1012.07
2018-03-20T04:51:30.213Z,1012.11
2018-03-20T04:52:30.159Z,1012.09
2018-03-20T04:53:30.107Z,1012.12
2018-03-20T04:54:30.059Z,1012.15
2018-03-20T04:55:30.006Z,1012.13
2018-03-20T04:56:29.955Z,1012.16
2018-03-20T04:57:29.906Z,1012.15
2018-03-20T04:58:29.855Z,1012.14
2018-03-20T04:59:29.806Z,1012.18
2018-03-20T05:00:29.760Z,1012.19
2018-03-20T05:01:29.700Z,1012.20
2018-03-20T05:02:29.651Z,1012.19
2018-03-20T05:03:29.598Z,1012.19
2018-03-20T05:04:29.551Z,1012.19
2018-03-20T05:05:29.498Z,1012.20
2018-03-20T05:06:29.448Z,1012.22
2018-03-20T05:07:29.398Z,1012.21
2018-03-20T05:08:29.349Z,1012.17
2018-03-20T05:09:29.298Z,1012.17
2018-03-20T05:10:29.247Z,1012.19
2018-03-20T05:11:29.193Z,1012.19
2018-03-20T05:12:29.151Z,1012.17
2018-03-20T05:13:29.096Z,1012.22
2018-03-20T05:14:29.046Z,1012.16
2018-03-20T05:15:28.995Z,1012.19
2018-03-20T05:16:28.942Z,1012.27
2018-03-20T05:17:28.890Z,1012.29
2018-03-20T05:18:28.854Z,1012.29
2018-03-20T05:19:28.797Z,1012.18
2018-03-20T05:20:28.747Z,1012.21
2018-03-20T05:21:28.692Z,1012.28
2018-03-20T05:22:28.639Z,1012.25
2018-03-20T05:23:28.587Z,1012.27
2018-03-20T05:24:28.541Z,1012.22
2018-03-20T05:25:28.483Z,1012.26
2018-03-20T05:26:28.440Z,1012.26
2018-03-20T05:27:28.389Z,1012.28
2018-03-20T05:28:28.332Z,1012.30
2018-03-20T05:29:28.284Z,1012.25
2018-03-20T05:30:28.229Z,1012.31
2018-03-20T05:31:28.180Z,1012.29
2018-03-20T05:32:28.129Z,1012.33
2018-03-20T05:33:28.078Z,1012.34
2018-03-20T05:34:28.051Z,1012.33
2018-03-20T05:35:27.983Z,1012.37
2018-03-20T05:36:27.925Z,1012.36
2018-03-20T05:37:27.874Z,1012.33
2018-03-20T05:38:27.834Z,1012.32
2018-03-20T05:39:27.779Z,1012.29
2018-03-20T05:40:27.725Z,1012.26
2018-03-20T05:41:27.671Z,1012.37
2018-03-20T05:42:27.630Z,1012.36
2018-03-20T05:43:27.571Z,1012.37
2018-03-20T05:44:27.523Z,1012.33
2018-03-20T05:45:27.472Z,1012.32
2018-03-20T05:46:27.421Z,1012.36
2018-03-20T05:47:27.368Z,1012.37
2018-03-20T05:48:27.316Z,1012.39
2018-03-20T05:49:27.271Z,1012.36
2018-03-20T05:50:27.223Z,1012.43
2018-03-20T05:51:27.181Z,1012.44
2018-03-20T05:52:27.117Z,1012.48
2018-03-20T05:53:27.066Z,1012.46
2018-03-20T05:54:27.017Z,1012.51
2018-03-20T05:55:26.964Z,1012.51
2018-03-20T05:56:26.921Z,1012.46
2018-03-20T05:57:26.864Z,1012.48
2018-03-20T05:58:26.820Z,1012.50
2018-03-20T05:59:26.760Z,1012.48
2018-03-20T06:00:26.720Z,1012.50
2018-03-20T06:01:26.665Z,1012.55
2018-03-20T06:02:26.611Z,1012.59
2018-03-20T06:03:26.565Z,1012.60
2018-03-20T06:04:26.511Z,1012.67
2018-03-20T06:05:26.462Z,1012.66
2018-03-20T06:06:26.408Z,1012.73
2018-03-20T06:07:26.358Z,1012.72
2018-03-20T06:08:26.307Z,1012.71
2018-03-20T06:09:26.258Z,1012.71
2018-03-20T06:10:26.207Z,1012.70
2018-03-20T06:11:26.155Z,1012.72
2018-03-20T06:12:26.105Z,1012.71
2018-03-20T06:13:26.056Z,1012.69
2018-03-20T06:14:26.005Z,1012.71
2018-03-20T06:15:25.961Z,1012.70
2018-03-20T06:16:25.904Z,1012.72
2018-03-20T06:17:25.856Z,1012.73
2018-03-20T06:18:25.808Z,1012.79
2018-03-20T06:19:25.755Z,1012.75
2018-03-20T06:20:25.707Z,1012.83
2018-03-20T06:21:25.660Z,1012.78
2018-03-20T06:22:25.609Z,1012.84
2018-03-20T06:23:25.557Z,1012.85
2018-03-20T06:24:25.505Z,1012.87
2018-03-20T06:25:25.456Z,1012.85
2018-03-20T06:26:25.402Z,1012.86
2018-03-20T06:27:25.350Z,1012.85
2018-03-20T06:28:25.302Z,1012.83
2018-03-20T06:29:25.251Z,1012.88
2018-03-20T06:30:25.205Z,1012.90
2018-03-20T06:31:25.149Z,1012.89
2018-03-20T06:32:25.105Z,1012.89
2018-03-20T06:33:25.053Z,1012.89
2018-03-20T06:34:25.009Z,1012.94
2018-03-20T06:35:24.949Z,1012.92
2018-03-20T06:36:24.901Z,1012.91
2018-03-20T06:37:24.852Z,1012.88
2018-03-20T06:38:24.803Z,1012.95
2018-03-20T06:39:24.753Z,1012.89
2018-03-20T06:40:24.698Z,1012.90
2018-03-20T06:41:24.653Z,1012.91
2018-03-20T06:42:24.602Z,1012.87
2018-03-20T06:43:24.549Z,1012.80
2018-03-20T06:44:24.503Z,1012.89
2018-03-20T06:45:24.451Z,1012.84
2018-03-20T06:46:24.405Z,1012.86
2018-03-20T06:47:24.358Z,1012.89
2018-03-20T06:48:24.300Z,1012.87
2018-03-20T06:49:24.256Z,1012.89
2018-03-20T06:50:24.204Z,1012.89
2018-03-20T06:51:24.160Z,1012.88
2018-03-20T06:52:24.102Z,1012.90
2018-03-20T06:53:24.054Z,1012.93
2018-03-20T06:54:24.003Z,1012.99
2018-03-20T06:55:23.951Z,1012.96
2018-03-20T06:56:23.904Z,1012.97
2018-03-20T06:57:23.851Z,1012.94
2018-03-20T06:58:23.807Z,1012.96
2018-03-20T06:59:23.802Z,1012.99
2018-03-20T07:00:23.703Z,1013.00
2018-03-20T07:01:23.655Z,1012.97
2018-03-20T07:02:23.607Z,1012.95
2018-03-20T07:03:23.555Z,1012.94
2018-03-20T07:04:23.504Z,1012.97
2018-03-20T07:05:23.454Z,1012.95
2018-03-20T07:06:23.405Z,1012.92
2018-03-20T07:07:23.359Z,1012.94
2018-03-20T07:08:23.306Z,1012.96
2018-03-20T07:09:23.256Z,1012.97
2018-03-20T07:10:23.207Z,1013.07
2018-03-20T07:11:23.166Z,1013.02
2018-03-20T07:12:23.109Z,1013.05
2018-03-20T07:13:23.060Z,1013.06
2018-03-20T07:14:23.010Z,1013.09
2018-03-20T07:15:22.959Z,1013.13
2018-03-20T07:16:22.910Z,1013.07
2018-03-20T07:17:22.864Z,1013.10
2018-03-20T07:18:22.819Z,1013.05
2018-03-20T07:19:22.765Z,1013.08
2018-03-20T07:20:22.716Z,1013.15
2018-03-20T07:21:22.666Z,1013.13
2018-03-20T07:22:22.623Z,1013.17
2018-03-20T07:23:22.573Z,1013.20
2018-03-20T07:24:22.521Z,1013.19
2018-03-20T07:25:22.469Z,1013.25
2018-03-20T07:26:22.420Z,1013.26
2018-03-20T07:27:22.369Z,1013.27
2018-03-20T07:28:22.420Z,1013.28
2018-03-20T07:29:22.273Z,1013.33
2018-03-20T07:30:22.223Z,1013.38
2018-03-20T07:31:22.176Z,1013.39
2018-03-20T07:32:22.124Z,1013.41
2018-03-20T07:33:22.077Z,1013.42
2018-03-20T07:34:22.028Z,1013.43
2018-03-20T07:35:21.979Z,1013.37
2018-03-20T07:36:21.933Z,1013.36
2018-03-20T07:37:21.879Z,1013.34
2018-03-20T07:38:21.831Z,1013.33
2018-03-20T07:39:21.783Z,1013.31
2018-03-20T07:40:21.734Z,1013.29
2018-03-20T07:41:21.690Z,1013.27
2018-03-20T07:42:21.640Z,1013.25
2018-03-20T07:43:21.590Z,1013.24
2018-03-20T07:44:21.538Z,1013.22
2018-03-20T07:45:21.496Z,1013.23
2018-03-20T07:46:21.446Z,1013.27
2018-03-20T07:47:21.393Z,1013.27
2018-03-20T07:48:21.345Z,1013.26
2018-03-20T07:49:21.295Z,1013.24
2018-03-20T07:50:21.248Z,1013.26
2018-03-20T07:51:21.201Z,1013.26
2018-03-20T07:52:21.154Z,1013.25
2018-03-20T07:53:21.104Z,1013.33
2018-03-20T07:54:21.056Z,1013.36
2018-03-20T07:55:21.010Z,1013.34
2018-03-20T07:56:20.963Z,1013.37
2018-03-20T07:57:20.912Z,1013.36
2018-03-20T07:58:20.864Z,1013.37
2018-03-20T07:59:20.816Z,1013.40
2018-03-20T08:00:20.769Z,1013.47
2018-03-20T08:01:20.725Z,1013.51
2018-03-20T08:02:20.676Z,1013.50
2018-03-20T08:03:20.625Z,1013.51
2018-03-20T08:04:20.575Z,1013.57
2018-03-20T08:05:20.528Z,1013.57
2018-03-20T08:06:20.491Z,1013.55
2018-03-20T08:07:20.435Z,1013.51
2018-03-20T08:08:20.383Z,1013.60
2018-03-20T08:09:20.336Z,1013.67
2018-03-20T08:10:20.287Z,1013.72
2018-03-20T08:11:20.238Z,1013.70
2018-03-20T08:12:20.193Z,1013.73
2018-03-20T08:13:20.143Z,1013.80
2018-03-20T08:14:20.096Z,1013.81
2018-03-20T08:15:20.047Z,1013.84
2018-03-20T08:16:20.004Z,1013.93
2018-03-20T08:17:19.953Z,1013.93
2018-03-20T08:18:19.903Z,1013.94
2018-03-20T08:19:19.855Z,1013.95
2018-03-20T08:20:19.816Z,1013.95
2018-03-20T08:21:19.759Z,1013.99
2018-03-20T08:22:19.711Z,1014.03
2018-03-20T08:23:19.660Z,1014.01
2018-03-20T08:24:19.613Z,1014.05
2018-03-20T08:25:19.567Z,1013.99
2018-03-20T08:26:19.520Z,1014.02
2018-03-20T08:27:19.469Z,1014.06
2018-03-20T08:28:21.921Z,1014.04
2018-03-20T08:29:19.439Z,1014.00
2018-03-20T08:30:19.329Z,1014.05
2018-03-20T08:31:19.279Z,1014.06
2018-03-20T08:32:19.232Z,1014.09
2018-03-20T08:33:19.183Z,1014.12
2018-03-20T08:34:19.133Z,1014.14
2018-03-20T08:35:19.097Z,1014.13
2018-03-20T08:36:19.037Z,1014.16
2018-03-20T08:37:18.993Z,1014.20
2018-03-20T08:38:18.941Z,1014.20
2018-03-20T08:39:18.893Z,1014.24
2018-03-20T08:40:18.845Z,1014.25
2018-03-20T08:41:18.800Z,1014.30
2018-03-20T08:42:18.754Z,1014.33
2018-03-20T08:43:18.705Z,1014.32
2018-03-20T08:44:18.666Z,1014.32
2018-03-20T08:45:18.610Z,1014.40
2018-03-20T08:46:18.563Z,1014.36
2018-03-20T08:47:18.514Z,1014.38
2018-03-20T08:48:18.468Z,1014.46
2018-03-20T08:49:18.422Z,1014.38
2018-03-20T08:50:18.413Z,1014.44
2018-03-20T08:51:18.330Z,1014.44
2018-03-20T08:52:18.280Z,1014.42
2018-03-20T08:53:18.234Z,1014.47
2018-03-20T08:54:18.194Z,1014.46
2018-03-20T08:55:18.147Z,1014.51
2018-03-20T08:56:18.092Z,1014.49
2018-03-20T08:57:18.045Z,1014.54
2018-03-20T08:58:18.003Z,1014.46
2018-03-20T08:59:17.963Z,1014.49
2018-03-20T09:00:17.908Z,1014.50
2018-03-20T09:01:17.864Z,1014.52
2018-03-20T09:02:17.818Z,1014.58
2018-03-20T09:03:17.774Z,1014.57
2018-03-20T09:04:17.728Z,1014.58
2018-03-20T09:05:17.685Z,1014.57
2018-03-20T09:06:17.642Z,1014.55
2018-03-20T09:07:17.594Z,1014.58
2018-03-20T09:08:17.552Z,1014.65
2018-03-20T09:09:17.508Z,1014.52
2018-03-20T09:10:17.468Z,1014.57
2018-03-20T09:11:17.423Z,1014.62
2018-03-20T09:12:17.388Z,1014.62
2018-03-20T09:13:17.337Z,1014.61
2018-03-20T09:14:17.299Z,1014.64
2018-03-20T09:15:17.252Z,1014.66
2018-03-20T09:16:17.207Z,1014.69
2018-03-20T09:17:17.175Z,1014.72
2018-03-20T09:18:17.125Z,1014.83
2018-03-20T09:19:17.082Z,1014.74
2018-03-20T09:20:17.039Z,1014.76
2018-03-20T09:21:17.000Z,1014.78
2018-03-20T09:22:16.959Z,1014.85
2018-03-20T09:23:16.916Z,1014.88
2018-03-20T09:24:16.872Z,1014.83
2018-03-20T09:25:16.830Z,1014.82
2018-03-20T09:26:16.786Z,1014.82
2018-03-20T09:27:16.745Z,1014.84
2018-03-20T09:28:16.705Z,1014.83
2018-03-20T09:29:16.661Z,1014.84
2018-03-20T09:30:16.620Z,1014.92
2018-03-20T09:31:16.579Z,1014.91
2018-03-20T09:32:16.536Z,1014.96
2018-03-20T09:33:16.497Z,1014.93
2018-03-20T09:34:16.454Z,1014.87
2018-03-20T09:35:16.408Z,1015.00
2018-03-20T09:36:16.377Z,1015.08
2018-03-20T09:37:16.327Z,1015.08
2018-03-20T09:38:16.284Z,1015.08
2018-03-20T09:39:16.251Z,1015.18
2018-03-20T09:40:16.202Z,1015.08
2018-03-20T09:41:16.159Z,1015.16
2018-03-20T09:42:16.117Z,1015.20
2018-03-20T09:43:16.076Z,1015.15
2018-03-20T09:44:16.032Z,1015.20
2018-03-20T09:45:15.991Z,1015.24
2018-03-20T09:46:15.949Z,1015.24
2018-03-20T09:47:15.908Z,1015.21
2018-03-20T09:48:15.863Z,1015.21
2018-03-20T09:49:15.825Z,1015.20
2018-03-20T09:50:15.780Z,1015.21
2018-03-20T09:51:15.737Z,1015.28
2018-03-20T09:52:15.695Z,1015.28
2018-03-20T09:53:15.652Z,1015.25
2018-03-20T09:54:15.612Z,1015.37
2018-03-20T09:55:15.568Z,1015.40
2018-03-20T09:56:15.527Z,1015.45
2018-03-20T09:57:15.483Z,1015.52
2018-03-20T09:58:15.440Z,1015.38
2018-03-20T09:59:15.398Z,1015.42
2018-03-20T10:00:15.411Z,1015.43
2018-03-20T10:01:15.313Z,1015.46
2018-03-20T10:02:15.270Z,1015.45
2018-03-20T10:03:15.233Z,1015.51
2018-03-20T10:04:15.184Z,1015.53
2018-03-20T10:05:15.152Z,1015.47
2018-03-20T10:06:15.109Z,1015.54
2018-03-20T10:07:15.057Z,1015.53
2018-03-20T10:08:15.024Z,1015.58
2018-03-20T10:09:14.973Z,1015.55
2018-03-20T10:10:14.952Z,1015.62
2018-03-20T10:11:14.887Z,1015.62
2018-03-20T10:12:14.843Z,1015.70
2018-03-20T10:13:14.802Z,1015.65
2018-03-20T10:14:14.757Z,1015.68
2018-03-20T10:15:14.714Z,1015.72
2018-03-20T10:16:14.673Z,1015.75
2018-03-20T10:17:14.629Z,1015.72
2018-03-20T10:18:14.585Z,1015.74
2018-03-20T10:19:14.545Z,1015.68
2018-03-20T10:20:14.585Z,1015.80
2018-03-20T10:21:14.459Z,1015.79
2018-03-20T10:22:14.415Z,1015.80
2018-03-20T10:23:14.372Z,1015.82
2018-03-20T10:24:14.327Z,1015.75
2018-03-20T10:25:14.286Z,1015.77
2018-03-20T10:26:14.245Z,1015.76
2018-03-20T10:27:14.203Z,1015.74
2018-03-20T10:28:14.155Z,1015.84
2018-03-20T10:29:14.112Z,1015.77
2018-03-20T10:30:14.071Z,1015.81
2018-03-20T10:31:14.032Z,1015.83
2018-03-20T10:32:13.983Z,1015.80
2018-03-20T10:33:13.945Z,1015.90
2018-03-20T10:34:13.898Z,1015.77
2018-03-20T10:35:13.855Z,1015.82
2018-03-20T10:36:13.810Z,1015.83
2018-03-20T10:37:13.769Z,1015.88
2018-03-20T10:38:13.723Z,1015.94
2018-03-20T10:39:13.680Z,1015.98
2018-03-20T10:40:13.641Z,1015.96
2018-03-20T10:41:13.595Z,1016.01
2018-03-20T10:42:13.553Z,1015.95
2018-03-20T10:43:13.508Z,1016.04
2018-03-20T10:44:13.464Z,1015.99
2018-03-20T10:45:13.420Z,1016.03
2018-03-20T10:46:13.375Z,1016.04
2018-03-20T10:47:13.333Z,1016.05
2018-03-20T10:48:13.298Z,1016.02
2018-03-20T10:49:13.247Z,1015.98
2018-03-20T10:50:13.203Z,1016.06
2018-03-20T10:51:13.160Z,1016.02
2018-03-20T10:52:13.119Z,1015.97
2018-03-20T10:53:13.074Z,1016.01
2018-03-20T10:54:13.032Z,1016.09
2018-03-20T10:55:12.993Z,1016.10
2018-03-20T10:56:12.944Z,1016.04
2018-03-20T10:57:12.899Z,1016.06
2018-03-20T10:58:12.862Z,1016.15
2018-03-20T10:59:12.819Z,1016.21
2018-03-20T11:00:12.768Z,1016.17
2018-03-20T11:01:12.728Z,1016.09
2018-03-20T11:02:12.683Z,1016.16
2018-03-20T11:03:12.638Z,1016.16
2018-03-20T11:04:12.598Z,1016.16
2018-03-20T11:05:12.552Z,1016.15
2018-03-20T11:06:12.514Z,1016.17
2018-03-20T11:07:12.465Z,1016.15
2018-03-20T11:08:12.423Z,1016.16
2018-03-20T11:09:12.379Z,1016.14
2018-03-20T11:10:12.337Z,1016.04
2018-03-20T11:11:12.294Z,1016.14
2018-03-20T11:12:12.249Z,1016.09
2018-03-20T11:13:12.206Z,1016.11
2018-03-20T11:14:12.164Z,1016.14
2018-03-20T11:15:12.121Z,1016.06
2018-03-20T11:16:12.076Z,1016.00
2018-03-20T11:17:12.033Z,1016.10
2018-03-20T11:18:11.992Z,1016.06
2018-03-20T11:19:11.959Z,1016.17
2018-03-20T11:20:11.904Z,1016.21
2018-03-20T11:21:11.868Z,1016.12
2018-03-20T11:22:11.818Z,1016.09
2018-03-20T11:23:11.979Z,1016.10
2018-03-20T11:24:11.739Z,1016.16
2018-03-20T11:25:11.689Z,1016.20
2018-03-20T11:26:11.644Z,1016.19
2018-03-20T11:27:11.598Z,1016.12
2018-03-20T11:28:11.559Z,1016.20
2018-03-20T11:29:11.512Z,1016.25
2018-03-20T11:30:11.471Z,1016.24
2018-03-20T11:31:11.425Z,1016.20
2018-03-20T11:32:11.383Z,1016.25
2018-03-20T11:33:11.337Z,1016.28
2018-03-20T11:34:11.295Z,1016.26
2018-03-20T11:35:11.264Z,1016.20
2018-03-20T11:36:11.207Z,1016.25
2018-03-20T11:37:11.164Z,1016.25
2018-03-20T11:38:11.128Z,1016.28
2018-03-20T11:39:11.079Z,1016.34
2018-03-20T11:40:11.037Z,1016.29
2018-03-20T11:41:10.991Z,1016.26
2018-03-20T11:42:10.951Z,1016.28
2018-03-20T11:43:10.904Z,1016.34
2018-03-20T11:44:10.863Z,1016.42
2018-03-20T11:45:10.821Z,1016.45
2018-03-20T11:46:10.777Z,1016.42
2018-03-20T11:47:10.739Z,1016.37
2018-03-20T11:48:10.690Z,1016.41
2018-03-20T11:49:10.648Z,1016.41
2018-03-20T11:50:10.605Z,1016.60
2018-03-20T11:51:10.561Z,1016.54
2018-03-20T11:52:10.517Z,1016.49
2018-03-20T11:53:10.474Z,1016.62
2018-03-20T11:54:10.432Z,1016.57
2018-03-20T11:55:10.388Z,1016.49
2018-03-20T11:56:10.348Z,1016.50
2018-03-20T11:57:10.305Z,1016.48
2018-03-20T11:58:10.263Z,1016.61
2018-03-20T11:59:10.223Z,1016.57
2018-03-20T12:00:10.180Z,1016.57
2018-03-20T12:01:10.134Z,1016.59
2018-03-20T12:02:10.149Z,1016.58
2018-03-20T12:03:10.049Z,1016.58
2018-03-20T12:04:10.007Z,1016.58
2018-03-20T12:05:09.968Z,1016.62